Terminal Aerodrome Forecast
Issued by NWS Memphis, TN

Home | Current Version | Previous Version | Text Only | Print | Product List | Glossary On
Versions: 1 2 3 4 5 6 7 8 9 10 11 12 13 14 15 16 17 18 19 20 21 22 23 24 25 26 27 28 29
000
FTUS44 KMEG 300103 AAC
TAFMEM
TAF AMD
KMEM 300103Z 3001/3024 16016G22KT P6SM VCTS FEW030 SCT050CB BKN250
     FM300115 23020G45KT 1SM TSRA SCT030CB OVC050
     FM300215 20010KT 3SM SHRA VCTS SCT030CB OVC050
     FM300800 17017G27KT P6SM BKN025 BKN250
     FM301400 18018G28KT P6SM VCTS BKN035CB
      TEMPO 3015/3018 3SM TSRA BKN015CB=

USA.gov is the U.S. government's official web portal to all federal, state and local government web resources and services.